sensor_id;sensor_type;location;lat;lon;timestamp;P1;durP1;ratioP1;P2;durP2;ratioP2
17261;SDS011;9873;52.236;21.002;2023-02-01T00:01:44;10.90;;;6.30;;
17261;SDS011;9873;52.236;21.002;2023-02-01T00:11:46;11.07;;;5.90;;
17261;SDS011;9873;52.236;21.002;2023-02-01T00:21:50;9.40;;;6.27;;
17261;SDS011;9873;52.236;21.002;2023-02-01T00:31:57;6.10;;;3.70;;
17261;SDS011;9873;52.236;21.002;2023-02-01T00:42:02;7.33;;;3.90;;
17261;SDS011;9873;52.236;21.002;2023-02-01T00:52:06;6.20;;;3.63;;
17261;SDS011;9873;52.236;21.002;2023-02-01T01:02:11;5.10;;;2.50;;
17261;SDS011;9873;52.236;21.002;2023-02-01T01:22:24;5.13;;;2.10;;
17261;SDS011;9873;52.236;21.002;2023-02-01T01:32:28;3.10;;;1.33;;
17261;SDS011;9873;52.236;21.002;2023-02-01T01:42:37;2.20;;;1.10;;
17261;SDS011;9873;52.236;21.002;2023-02-01T01:52:43;3.07;;;1.10;;
17261;SDS011;9873;52.236;21.002;2023-02-01T02:02:47;7.40;;;2.00;;
17261;SDS011;9873;52.236;21.002;2023-02-01T02:12:55;5.03;;;1.87;;
17261;SDS011;9873;52.236;21.002;2023-02-01T02:43:47;3.13;;;1.80;;
17261;SDS011;9873;52.236;21.002;2023-02-01T02:54:13;5.23;;;2.10;;
17261;SDS011;9873;52.236;21.002;2023-02-01T03:04:38;6.93;;;2.47;;
17261;SDS011;9873;52.236;21.002;2023-02-01T03:14:45;9.50;;;2.40;;
17261;SDS011;9873;52.236;21.002;2023-02-01T03:25:07;7.70;;;1.93;;
17261;SDS011;9873;52.236;21.002;2023-02-01T03:35:18;8.10;;;2.10;;
17261;SDS011;9873;52.236;21.002;2023-02-01T03:45:49;5.50;;;2.40;;
17261;SDS011;9873;52.236;21.002;2023-02-01T03:55:57;10.03;;;2.57;;
17261;SDS011;9873;52.236;21.002;2023-02-01T04:06:00;13.37;;;3.10;;
17261;SDS011;9873;52.236;21.002;2023-02-01T04:16:04;8.40;;;2.63;;
17261;SDS011;9873;52.236;21.002;2023-02-01T04:26:09;7.60;;;2.20;;
17261;SDS011;9873;52.236;21.002;2023-02-01T04:36:16;10.17;;;2.40;;
17261;SDS011;9873;52.236;21.002;2023-02-01T04:46:21;10.67;;;2.60;;
17261;SDS011;9873;52.236;21.002;2023-02-01T04:56:24;8.13;;;2.37;;
17261;SDS011;9873;52.236;21.002;2023-02-01T05:06:28;6.60;;;2.47;;
17261;SDS011;9873;52.236;21.002;2023-02-01T05:16:30;10.33;;;2.03;;
17261;SDS011;9873;52.236;21.002;2023-02-01T05:26:41;4.97;;;1.77;;
17261;SDS011;9873;52.236;21.002;2023-02-01T05:36:47;16.30;;;2.93;;
17261;SDS011;9873;52.236;21.002;2023-02-01T05:46:49;9.47;;;2.10;;
17261;SDS011;9873;52.236;21.002;2023-02-01T05:56:57;7.67;;;1.87;;
17261;SDS011;9873;52.236;21.002;2023-02-01T06:07:01;8.03;;;2.37;;
17261;SDS011;9873;52.236;21.002;2023-02-01T06:17:08;4.03;;;1.43;;
17261;SDS011;9873;52.236;21.002;2023-02-01T06:27:10;8.83;;;2.80;;
17261;SDS011;9873;52.236;21.002;2023-02-01T06:37:12;13.77;;;3.40;;
17261;SDS011;9873;52.236;21.002;2023-02-01T06:47:14;10.93;;;2.23;;
17261;SDS011;9873;52.236;21.002;2023-02-01T06:57:20;12.73;;;3.77;;
17261;SDS011;9873;52.236;21.002;2023-02-01T07:07:24;10.40;;;2.43;;
17261;SDS011;9873;52.236;21.002;2023-02-01T07:17:33;7.27;;;1.97;;
17261;SDS011;9873;52.236;21.002;2023-02-01T07:27:38;6.20;;;2.07;;
17261;SDS011;9873;52.236;21.002;2023-02-01T07:37:41;10.53;;;2.83;;
17261;SDS011;9873;52.236;21.002;2023-02-01T07:47:46;17.77;;;3.13;;
17261;SDS011;9873;52.236;21.002;2023-02-01T07:57:51;9.43;;;2.23;;
17261;SDS011;9873;52.236;21.002;2023-02-01T08:07:56;12.73;;;4.30;;
17261;SDS011;9873;52.236;21.002;2023-02-01T08:17:59;5.63;;;2.00;;
17261;SDS011;9873;52.236;21.002;2023-02-01T08:28:06;11.10;;;2.63;;
17261;SDS011;9873;52.236;21.002;2023-02-01T08:38:16;9.40;;;3.03;;
17261;SDS011;9873;52.236;21.002;2023-02-01T08:48:23;16.27;;;3.03;;
17261;SDS011;9873;52.236;21.002;2023-02-01T08:58:25;8.67;;;3.33;;
17261;SDS011;9873;52.236;21.002;2023-02-01T09:08:27;10.13;;;2.23;;
17261;SDS011;9873;52.236;21.002;2023-02-01T09:18:29;11.20;;;2.83;;
17261;SDS011;9873;52.236;21.002;2023-02-01T09:28:35;5.37;;;2.20;;
17261;SDS011;9873;52.236;21.002;2023-02-01T09:38:40;8.73;;;2.43;;
17261;SDS011;9873;52.236;21.002;2023-02-01T09:48:56;10.77;;;3.63;;
17261;SDS011;9873;52.236;21.002;2023-02-01T09:59:41;10.70;;;3.00;;
17261;SDS011;9873;52.236;21.002;2023-02-01T10:09:59;11.83;;;3.23;;
17261;SDS011;9873;52.236;21.002;2023-02-01T10:30:44;10.10;;;3.23;;
17261;SDS011;9873;52.236;21.002;2023-02-01T10:40:52;10.20;;;3.10;;
17261;SDS011;9873;52.236;21.002;2023-02-01T10:51:00;8.73;;;3.37;;
17261;SDS011;9873;52.236;21.002;2023-02-01T11:01:08;7.27;;;2.33;;
17261;SDS011;9873;52.236;21.002;2023-02-01T11:11:26;7.93;;;2.73;;
17261;SDS011;9873;52.236;21.002;2023-02-01T11:21:33;6.20;;;2.43;;
17261;SDS011;9873;52.236;21.002;2023-02-01T11:31:38;7.50;;;3.00;;
17261;SDS011;9873;52.236;21.002;2023-02-01T12:44:35;11.40;;;3.90;;
17261;SDS011;9873;52.236;21.002;2023-02-01T12:54:50;11.53;;;3.73;;
17261;SDS011;9873;52.236;21.002;2023-02-01T13:05:21;14.10;;;3.60;;
17261;SDS011;9873;52.236;21.002;2023-02-01T13:15:33;12.03;;;3.47;;
17261;SDS011;9873;52.236;21.002;2023-02-01T13:25:49;14.97;;;4.20;;
17261;SDS011;9873;52.236;21.002;2023-02-01T13:46:25;9.60;;;3.60;;
17261;SDS011;9873;52.236;21.002;2023-02-01T13:56:38;7.47;;;3.90;;
17261;SDS011;9873;52.236;21.002;2023-02-01T14:06:53;6.30;;;3.80;;
17261;SDS011;9873;52.236;21.002;2023-02-01T14:57:29;10.10;;;3.80;;
17261;SDS011;9873;52.236;21.002;2023-02-01T15:07:31;6.70;;;2.93;;
17261;SDS011;9873;52.236;21.002;2023-02-01T15:17:38;7.43;;;3.40;;
17261;SDS011;9873;52.236;21.002;2023-02-01T15:27:43;5.07;;;3.00;;
17261;SDS011;9873;52.236;21.002;2023-02-01T15:37:49;4.37;;;2.83;;
17261;SDS011;9873;52.236;21.002;2023-02-01T15:47:55;6.77;;;4.10;;
17261;SDS011;9873;52.236;21.002;2023-02-01T15:57:58;8.93;;;3.33;;
17261;SDS011;9873;52.236;21.002;2023-02-01T16:08:05;7.00;;;4.83;;
17261;SDS011;9873;52.236;21.002;2023-02-01T16:18:25;8.77;;;4.27;;
17261;SDS011;9873;52.236;21.002;2023-02-01T16:28:27;5.90;;;4.27;;
17261;SDS011;9873;52.236;21.002;2023-02-01T16:38:30;7.80;;;3.50;;
17261;SDS011;9873;52.236;21.002;2023-02-01T16:48:37;9.63;;;4.50;;
17261;SDS011;9873;52.236;21.002;2023-02-01T16:58:42;9.70;;;4.40;;
17261;SDS011;9873;52.236;21.002;2023-02-01T17:08:49;7.17;;;5.30;;
17261;SDS011;9873;52.236;21.002;2023-02-01T17:18:54;7.13;;;4.83;;
17261;SDS011;9873;52.236;21.002;2023-02-01T17:28:56;11.13;;;6.07;;
17261;SDS011;9873;52.236;21.002;2023-02-01T17:39:01;14.97;;;5.77;;
17261;SDS011;9873;52.236;21.002;2023-02-01T17:49:07;9.93;;;5.23;;
17261;SDS011;9873;52.236;21.002;2023-02-01T17:59:09;7.83;;;4.73;;
17261;SDS011;9873;52.236;21.002;2023-02-01T18:09:15;10.80;;;5.00;;
17261;SDS011;9873;52.236;21.002;2023-02-01T18:19:20;9.83;;;5.43;;
17261;SDS011;9873;52.236;21.002;2023-02-01T18:29:23;9.13;;;4.80;;
17261;SDS011;9873;52.236;21.002;2023-02-01T18:39:26;11.97;;;5.03;;
17261;SDS011;9873;52.236;21.002;2023-02-01T18:49:30;10.83;;;4.60;;
17261;SDS011;9873;52.236;21.002;2023-02-01T18:59:35;13.10;;;4.70;;
17261;SDS011;9873;52.236;21.002;2023-02-01T19:09:39;9.77;;;5.27;;
17261;SDS011;9873;52.236;21.002;2023-02-01T19:19:44;9.80;;;5.77;;
17261;SDS011;9873;52.236;21.002;2023-02-01T19:29:46;7.13;;;4.03;;
17261;SDS011;9873;52.236;21.002;2023-02-01T19:39:48;14.00;;;4.40;;
17261;SDS011;9873;52.236;21.002;2023-02-01T19:49:53;9.00;;;4.40;;
17261;SDS011;9873;52.236;21.002;2023-02-01T19:59:57;15.80;;;5.73;;
17261;SDS011;9873;52.236;21.002;2023-02-01T20:10:01;10.57;;;4.83;;
17261;SDS011;9873;52.236;21.002;2023-02-01T20:20:05;16.07;;;5.60;;
17261;SDS011;9873;52.236;21.002;2023-02-01T20:30:19;10.50;;;5.67;;
17261;SDS011;9873;52.236;21.002;2023-02-01T20:40:23;11.37;;;4.90;;
17261;SDS011;9873;52.236;21.002;2023-02-01T20:50:25;14.00;;;6.77;;
17261;SDS011;9873;52.236;21.002;2023-02-01T21:00:32;15.43;;;6.30;;
17261;SDS011;9873;52.236;21.002;2023-02-01T21:10:40;14.27;;;6.17;;
17261;SDS011;9873;52.236;21.002;2023-02-01T21:20:42;15.10;;;6.07;;
17261;SDS011;9873;52.236;21.002;2023-02-01T21:30:49;13.70;;;6.30;;
17261;SDS011;9873;52.236;21.002;2023-02-01T21:40:54;15.87;;;7.27;;
17261;SDS011;9873;52.236;21.002;2023-02-01T21:51:14;8.93;;;5.27;;
17261;SDS011;9873;52.236;21.002;2023-02-01T22:01:25;10.13;;;5.37;;
17261;SDS011;9873;52.236;21.002;2023-02-01T22:11:33;12.80;;;5.33;;
17261;SDS011;9873;52.236;21.002;2023-02-01T22:21:40;12.00;;;5.27;;
17261;SDS011;9873;52.236;21.002;2023-02-01T22:31:46;9.00;;;5.10;;
17261;SDS011;9873;52.236;21.002;2023-02-01T22:41:53;12.93;;;5.77;;
17261;SDS011;9873;52.236;21.002;2023-02-01T22:51:57;9.87;;;5.23;;
17261;SDS011;9873;52.236;21.002;2023-02-01T23:02:02;10.83;;;5.33;;
17261;SDS011;9873;52.236;21.002;2023-02-01T23:12:04;5.23;;;3.63;;
17261;SDS011;9873;52.236;21.002;2023-02-01T23:22:06;9.00;;;5.13;;
17261;SDS011;9873;52.236;21.002;2023-02-01T23:32:11;11.83;;;5.77;;
17261;SDS011;9873;52.236;21.002;2023-02-01T23:42:14;9.30;;;6.63;;
17261;SDS011;9873;52.236;21.002;2023-02-01T23:52:20;10.87;;;6.43;;
